N7612J KSNA-KHND
Flight info
| Callsign | N7612J |
|---|---|
| Flight time | 1h 23m |
| Altitude | VFR |
| Route | |
| Aircraft | P28R/L-DOV/C |
Departure
| Time | 2026-04-21 03:06 |
|---|---|
| Airport | John Wayne Orange County International Airport (KSNA) |
Arrival
| Time | 2026-04-21 04:29 |
|---|---|
| Airport | Henderson Executive Airport (KHND) |
| Time | Latitude | Longitude | Altitude | Speed | Heading |
|---|---|---|---|---|---|
| 2026-04-21 03:06 | 33.68759 | -117.84020 | 2705 ft | 101 kts | 29° |
| 2026-04-21 03:06 | 33.69349 | -117.83557 | 2827 ft | 102 kts | 32° |
| 2026-04-21 03:06 | 33.69939 | -117.83051 | 2940 ft | 107 kts | 34° |
| 2026-04-21 03:06 | 33.70536 | -117.82502 | 3154 ft | 106 kts | 37° |
| 2026-04-21 03:07 | 33.71102 | -117.81950 | 3356 ft | 106 kts | 38° |
| 2026-04-21 03:07 | 33.71668 | -117.81379 | 3553 ft | 107 kts | 39° |
| 2026-04-21 03:07 | 33.72226 | -117.80797 | 3754 ft | 107 kts | 40° |
| 2026-04-21 03:07 | 33.72784 | -117.80202 | 3944 ft | 107 kts | 41° |
| 2026-04-21 03:08 | 33.73336 | -117.79604 | 4134 ft | 107 kts | 41° |
| 2026-04-21 03:08 | 33.73893 | -117.78991 | 4320 ft | 108 kts | 42° |
| 2026-04-21 03:08 | 33.74447 | -117.78377 | 4506 ft | 109 kts | 43° |
| 2026-04-21 03:08 | 33.74990 | -117.77769 | 4679 ft | 110 kts | 43° |
| 2026-04-21 03:09 | 33.75554 | -117.77135 | 4869 ft | 109 kts | 44° |
| 2026-04-21 03:09 | 33.76106 | -117.76511 | 5046 ft | 109 kts | 44° |
| 2026-04-21 03:09 | 33.76656 | -117.75887 | 5213 ft | 110 kts | 44° |
| 2026-04-21 03:09 | 33.77216 | -117.75252 | 5374 ft | 111 kts | 45° |
| 2026-04-21 03:10 | 33.77781 | -117.74607 | 5542 ft | 111 kts | 45° |
| 2026-04-21 03:10 | 33.78346 | -117.73964 | 5703 ft | 112 kts | 45° |
| 2026-04-21 03:10 | 33.78912 | -117.73315 | 5878 ft | 111 kts | 45° |
| 2026-04-21 03:10 | 33.79470 | -117.72678 | 6042 ft | 111 kts | 45° |
| 2026-04-21 03:11 | 33.80025 | -117.72044 | 6200 ft | 111 kts | 45° |
| 2026-04-21 03:11 | 33.80591 | -117.71396 | 6353 ft | 112 kts | 45° |
| 2026-04-21 03:11 | 33.81166 | -117.70738 | 6500 ft | 113 kts | 45° |
| 2026-04-21 03:11 | 33.81723 | -117.70100 | 6636 ft | 114 kts | 46° |
| 2026-04-21 03:12 | 33.82303 | -117.69434 | 6784 ft | 115 kts | 46° |
| 2026-04-21 03:12 | 33.82886 | -117.68765 | 6923 ft | 116 kts | 46° |
| 2026-04-21 03:12 | 33.83464 | -117.68102 | 7061 ft | 116 kts | 46° |
| 2026-04-21 03:12 | 33.84059 | -117.67420 | 7202 ft | 117 kts | 45° |
| 2026-04-21 03:13 | 33.84664 | -117.66727 | 7341 ft | 118 kts | 46° |
| 2026-04-21 03:13 | 33.85256 | -117.66048 | 7469 ft | 119 kts | 46° |
| 2026-04-21 03:13 | 33.85887 | -117.65324 | 7499 ft | 128 kts | 46° |
| 2026-04-21 03:13 | 33.86550 | -117.64562 | 7498 ft | 135 kts | 46° |
| 2026-04-21 03:14 | 33.87242 | -117.63766 | 7497 ft | 140 kts | 46° |
| 2026-04-21 03:14 | 33.87942 | -117.62962 | 7496 ft | 142 kts | 46° |
| 2026-04-21 03:14 | 33.88664 | -117.62130 | 7492 ft | 143 kts | 46° |
| 2026-04-21 03:14 | 33.89390 | -117.61298 | 7493 ft | 144 kts | 46° |
| 2026-04-21 03:15 | 33.90111 | -117.60466 | 7492 ft | 144 kts | 46° |
| 2026-04-21 03:15 | 33.90841 | -117.59630 | 7492 ft | 144 kts | 46° |
| 2026-04-21 03:15 | 33.91565 | -117.58799 | 7493 ft | 144 kts | 46° |
| 2026-04-21 03:15 | 33.92285 | -117.57970 | 7493 ft | 145 kts | 46° |
| 2026-04-21 03:16 | 33.93022 | -117.57121 | 7493 ft | 145 kts | 46° |
| 2026-04-21 03:16 | 33.93763 | -117.56269 | 7504 ft | 144 kts | 45° |
| 2026-04-21 03:16 | 33.94434 | -117.55502 | 7760 ft | 126 kts | 46° |
| 2026-04-21 03:16 | 33.95050 | -117.54793 | 7946 ft | 120 kts | 46° |
| 2026-04-21 03:17 | 33.95656 | -117.54096 | 8088 ft | 120 kts | 46° |
| 2026-04-21 03:17 | 33.96258 | -117.53405 | 8219 ft | 120 kts | 46° |
| 2026-04-21 03:17 | 33.96860 | -117.52712 | 8351 ft | 119 kts | 47° |
| 2026-04-21 03:17 | 33.97472 | -117.52009 | 8478 ft | 120 kts | 47° |
| 2026-04-21 03:18 | 33.98045 | -117.51349 | 8597 ft | 120 kts | 47° |
| 2026-04-21 03:18 | 33.98666 | -117.50633 | 8713 ft | 121 kts | 47° |
| 2026-04-21 03:18 | 33.99275 | -117.49929 | 8833 ft | 121 kts | 47° |
| 2026-04-21 03:18 | 33.99885 | -117.49225 | 8948 ft | 122 kts | 47° |
| 2026-04-21 03:19 | 34.00496 | -117.48521 | 9062 ft | 123 kts | 47° |
| 2026-04-21 03:19 | 34.01121 | -117.47799 | 9181 ft | 123 kts | 47° |
| 2026-04-21 03:19 | 34.01743 | -117.47081 | 9294 ft | 124 kts | 48° |
| 2026-04-21 03:19 | 34.02348 | -117.46384 | 9399 ft | 125 kts | 48° |
| 2026-04-21 03:20 | 34.02981 | -117.45653 | 9522 ft | 124 kts | 47° |
| 2026-04-21 03:20 | 34.03607 | -117.44930 | 9637 ft | 124 kts | 48° |
| 2026-04-21 03:20 | 34.04204 | -117.44241 | 9741 ft | 125 kts | 48° |
| 2026-04-21 03:20 | 34.04855 | -117.43489 | 9840 ft | 126 kts | 48° |
| 2026-04-21 03:21 | 34.05493 | -117.42752 | 9952 ft | 126 kts | 48° |
| 2026-04-21 03:21 | 34.06117 | -117.42027 | 10055 ft | 126 kts | 47° |
| 2026-04-21 03:21 | 34.06758 | -117.41289 | 10151 ft | 127 kts | 47° |
| 2026-04-21 03:21 | 34.07399 | -117.40548 | 10247 ft | 128 kts | 48° |
| 2026-04-21 03:22 | 34.08029 | -117.39818 | 10350 ft | 127 kts | 48° |
| 2026-04-21 03:22 | 34.08672 | -117.39075 | 10432 ft | 128 kts | 47° |
| 2026-04-21 03:22 | 34.09323 | -117.38323 | 10502 ft | 129 kts | 47° |
| 2026-04-21 03:22 | 34.09981 | -117.37560 | 10520 ft | 135 kts | 47° |
| 2026-04-21 03:23 | 34.10670 | -117.36764 | 10519 ft | 140 kts | 47° |
| 2026-04-21 03:23 | 34.11388 | -117.35931 | 10521 ft | 143 kts | 47° |
| 2026-04-21 03:23 | 34.12112 | -117.35091 | 10523 ft | 145 kts | 47° |
| 2026-04-21 03:23 | 34.12834 | -117.34255 | 10539 ft | 145 kts | 47° |
| 2026-04-21 03:24 | 34.13545 | -117.33437 | 10681 ft | 136 kts | 48° |
| 2026-04-21 03:24 | 34.14212 | -117.32665 | 10805 ft | 131 kts | 48° |
| 2026-04-21 03:24 | 34.14863 | -117.31911 | 10894 ft | 130 kts | 47° |
| 2026-04-21 03:24 | 34.15528 | -117.31138 | 10965 ft | 131 kts | 48° |
| 2026-04-21 03:25 | 34.16181 | -117.30381 | 11043 ft | 131 kts | 48° |
| 2026-04-21 03:25 | 34.16837 | -117.29621 | 11111 ft | 132 kts | 49° |
| 2026-04-21 03:25 | 34.17501 | -117.28851 | 11195 ft | 131 kts | 48° |
| 2026-04-21 03:25 | 34.18173 | -117.28073 | 11260 ft | 132 kts | 48° |
| 2026-04-21 03:26 | 34.18827 | -117.27311 | 11336 ft | 132 kts | 48° |
| 2026-04-21 03:26 | 34.19494 | -117.26539 | 11408 ft | 133 kts | 48° |
| 2026-04-21 03:26 | 34.20165 | -117.25758 | 11485 ft | 133 kts | 48° |
| 2026-04-21 03:26 | 34.20829 | -117.24985 | 11554 ft | 134 kts | 48° |
| 2026-04-21 03:27 | 34.21519 | -117.24184 | 11569 ft | 139 kts | 48° |
| 2026-04-21 03:27 | 34.22225 | -117.23360 | 11577 ft | 142 kts | 47° |
| 2026-04-21 03:27 | 34.22947 | -117.22524 | 11573 ft | 145 kts | 47° |
| 2026-04-21 03:27 | 34.23675 | -117.21677 | 11572 ft | 146 kts | 48° |
| 2026-04-21 03:28 | 34.24421 | -117.20813 | 11573 ft | 147 kts | 48° |
| 2026-04-21 03:28 | 34.25157 | -117.19953 | 11581 ft | 148 kts | 47° |
| 2026-04-21 03:28 | 34.25903 | -117.19089 | 11579 ft | 149 kts | 48° |
| 2026-04-21 03:28 | 34.26653 | -117.18214 | 11584 ft | 149 kts | 47° |
| 2026-04-21 03:29 | 34.27382 | -117.17367 | 11581 ft | 149 kts | 47° |
| 2026-04-21 03:29 | 34.28142 | -117.16480 | 11574 ft | 148 kts | 47° |
| 2026-04-21 03:29 | 34.28883 | -117.15621 | 11573 ft | 149 kts | 48° |
| 2026-04-21 03:29 | 34.29633 | -117.14748 | 11575 ft | 148 kts | 48° |
| 2026-04-21 03:30 | 34.30378 | -117.13876 | 11572 ft | 149 kts | 48° |
| 2026-04-21 03:30 | 34.31128 | -117.13004 | 11572 ft | 149 kts | 48° |
| 2026-04-21 03:30 | 34.31876 | -117.12128 | 11579 ft | 149 kts | 48° |
| 2026-04-21 03:30 | 34.32624 | -117.11257 | 11581 ft | 149 kts | 47° |
| 2026-04-21 03:31 | 34.33383 | -117.10374 | 11574 ft | 150 kts | 48° |
| 2026-04-21 03:31 | 34.34131 | -117.09499 | 11573 ft | 149 kts | 48° |
| 2026-04-21 03:31 | 34.34880 | -117.08627 | 11569 ft | 149 kts | 47° |
| 2026-04-21 03:31 | 34.35638 | -117.07742 | 11566 ft | 149 kts | 47° |
| 2026-04-21 03:32 | 34.36384 | -117.06871 | 11566 ft | 149 kts | 47° |
| 2026-04-21 03:32 | 34.37131 | -117.05999 | 11564 ft | 150 kts | 48° |
| 2026-04-21 03:32 | 34.37882 | -117.05123 | 11565 ft | 149 kts | 48° |
| 2026-04-21 03:32 | 34.38637 | -117.04240 | 11563 ft | 149 kts | 48° |
| 2026-04-21 03:33 | 34.39382 | -117.03372 | 11562 ft | 149 kts | 48° |
| 2026-04-21 03:33 | 34.40134 | -117.02492 | 11563 ft | 149 kts | 48° |
| 2026-04-21 03:33 | 34.40880 | -117.01617 | 11563 ft | 149 kts | 48° |
| 2026-04-21 03:33 | 34.41615 | -117.00756 | 11559 ft | 149 kts | 48° |
| 2026-04-21 03:34 | 34.42371 | -116.99871 | 11554 ft | 149 kts | 47° |
| 2026-04-21 03:34 | 34.43121 | -116.98995 | 11545 ft | 149 kts | 48° |
| 2026-04-21 03:34 | 34.43865 | -116.98122 | 11538 ft | 149 kts | 48° |
| 2026-04-21 03:34 | 34.44607 | -116.97254 | 11530 ft | 149 kts | 47° |
| 2026-04-21 03:35 | 34.45354 | -116.96380 | 11521 ft | 149 kts | 48° |
| 2026-04-21 03:35 | 34.46104 | -116.95501 | 11512 ft | 149 kts | 48° |
| 2026-04-21 03:35 | 34.46841 | -116.94637 | 11515 ft | 148 kts | 48° |
| 2026-04-21 03:35 | 34.47593 | -116.93755 | 11516 ft | 148 kts | 48° |
| 2026-04-21 03:36 | 34.48337 | -116.92882 | 11511 ft | 148 kts | 48° |
| 2026-04-21 03:36 | 34.49078 | -116.92014 | 11507 ft | 148 kts | 48° |
| 2026-04-21 03:36 | 34.49822 | -116.91144 | 11506 ft | 147 kts | 48° |
| 2026-04-21 03:36 | 34.50557 | -116.90282 | 11518 ft | 147 kts | 49° |
| 2026-04-21 03:37 | 34.51301 | -116.89408 | 11515 ft | 147 kts | 48° |
| 2026-04-21 03:37 | 34.52033 | -116.88548 | 11512 ft | 148 kts | 49° |
| 2026-04-21 03:37 | 34.52774 | -116.87676 | 11526 ft | 148 kts | 49° |
| 2026-04-21 03:37 | 34.53521 | -116.86797 | 11525 ft | 148 kts | 48° |
| 2026-04-21 03:38 | 34.54254 | -116.85934 | 11515 ft | 148 kts | 48° |
| 2026-04-21 03:38 | 34.55003 | -116.85056 | 11518 ft | 148 kts | 48° |
| 2026-04-21 03:38 | 34.55745 | -116.84184 | 11515 ft | 148 kts | 48° |
| 2026-04-21 03:38 | 34.56472 | -116.83332 | 11514 ft | 148 kts | 48° |
| 2026-04-21 03:39 | 34.57218 | -116.82452 | 11518 ft | 148 kts | 48° |
| 2026-04-21 03:39 | 34.57967 | -116.81570 | 11520 ft | 148 kts | 49° |
| 2026-04-21 03:39 | 34.58697 | -116.80711 | 11511 ft | 148 kts | 48° |
| 2026-04-21 03:39 | 34.59438 | -116.79841 | 11517 ft | 147 kts | 48° |
| 2026-04-21 03:40 | 34.60176 | -116.78972 | 11516 ft | 147 kts | 48° |
| 2026-04-21 03:40 | 34.60911 | -116.78108 | 11521 ft | 147 kts | 49° |
| 2026-04-21 03:40 | 34.61648 | -116.77238 | 11520 ft | 147 kts | 49° |
| 2026-04-21 03:40 | 34.62394 | -116.76360 | 11526 ft | 147 kts | 48° |
| 2026-04-21 03:41 | 34.63126 | -116.75495 | 11527 ft | 147 kts | 48° |
| 2026-04-21 03:41 | 34.63858 | -116.74631 | 11533 ft | 148 kts | 48° |
| 2026-04-21 03:41 | 34.64601 | -116.73755 | 11526 ft | 148 kts | 48° |
| 2026-04-21 03:41 | 34.65340 | -116.72882 | 11530 ft | 148 kts | 48° |
| 2026-04-21 03:42 | 34.66071 | -116.72021 | 11532 ft | 148 kts | 48° |
| 2026-04-21 03:42 | 34.66813 | -116.71146 | 11527 ft | 148 kts | 48° |
| 2026-04-21 03:42 | 34.67556 | -116.70270 | 11513 ft | 148 kts | 49° |
| 2026-04-21 03:42 | 34.68288 | -116.69407 | 11495 ft | 147 kts | 48° |
| 2026-04-21 03:43 | 34.69027 | -116.68535 | 11494 ft | 146 kts | 49° |
| 2026-04-21 03:43 | 34.69758 | -116.67672 | 11494 ft | 146 kts | 49° |
| 2026-04-21 03:43 | 34.70490 | -116.66805 | 11494 ft | 147 kts | 49° |
| 2026-04-21 03:43 | 34.71223 | -116.65939 | 11494 ft | 147 kts | 49° |
| 2026-04-21 03:44 | 34.71956 | -116.65071 | 11488 ft | 146 kts | 49° |
| 2026-04-21 03:44 | 34.72684 | -116.64209 | 11490 ft | 146 kts | 49° |
| 2026-04-21 03:44 | 34.73418 | -116.63339 | 11487 ft | 146 kts | 48° |
| 2026-04-21 03:44 | 34.74148 | -116.62476 | 11488 ft | 146 kts | 49° |
| 2026-04-21 03:45 | 34.74881 | -116.61610 | 11488 ft | 146 kts | 49° |
| 2026-04-21 03:45 | 34.75615 | -116.60741 | 11486 ft | 146 kts | 49° |
| 2026-04-21 03:45 | 34.76342 | -116.59882 | 11476 ft | 147 kts | 49° |
| 2026-04-21 03:45 | 34.77082 | -116.59004 | 11473 ft | 147 kts | 49° |
| 2026-04-21 03:46 | 34.77816 | -116.58134 | 11469 ft | 146 kts | 49° |
| 2026-04-21 03:46 | 34.78535 | -116.57281 | 11470 ft | 146 kts | 49° |
| 2026-04-21 03:46 | 34.79269 | -116.56410 | 11470 ft | 146 kts | 49° |
| 2026-04-21 03:46 | 34.80006 | -116.55535 | 11466 ft | 146 kts | 49° |
| 2026-04-21 03:47 | 34.80726 | -116.54681 | 11470 ft | 146 kts | 49° |
| 2026-04-21 03:47 | 34.81456 | -116.53816 | 11466 ft | 146 kts | 48° |
| 2026-04-21 03:47 | 34.82182 | -116.52956 | 11464 ft | 146 kts | 49° |
| 2026-04-21 03:47 | 34.82916 | -116.52084 | 11463 ft | 146 kts | 49° |
| 2026-04-21 03:48 | 34.83638 | -116.51229 | 11462 ft | 146 kts | 49° |
| 2026-04-21 03:48 | 34.84370 | -116.50359 | 11460 ft | 146 kts | 49° |
| 2026-04-21 03:48 | 34.85099 | -116.49493 | 11456 ft | 146 kts | 49° |
| 2026-04-21 03:48 | 34.85829 | -116.48625 | 11452 ft | 146 kts | 49° |
| 2026-04-21 03:49 | 34.86566 | -116.47751 | 11452 ft | 146 kts | 49° |
| 2026-04-21 03:49 | 34.87299 | -116.46880 | 11449 ft | 146 kts | 49° |
| 2026-04-21 03:49 | 34.88022 | -116.46019 | 11447 ft | 146 kts | 49° |
| 2026-04-21 03:49 | 34.88756 | -116.45145 | 11445 ft | 146 kts | 49° |
| 2026-04-21 03:50 | 34.89480 | -116.44284 | 11442 ft | 146 kts | 49° |
| 2026-04-21 03:50 | 34.90211 | -116.43412 | 11439 ft | 146 kts | 49° |
| 2026-04-21 03:50 | 34.90935 | -116.42549 | 11437 ft | 146 kts | 49° |
| 2026-04-21 03:50 | 34.91672 | -116.41674 | 11440 ft | 146 kts | 49° |
| 2026-04-21 03:51 | 34.92392 | -116.40816 | 11444 ft | 146 kts | 49° |
| 2026-04-21 03:51 | 34.93123 | -116.39945 | 11438 ft | 146 kts | 49° |
| 2026-04-21 03:51 | 34.93847 | -116.39080 | 11433 ft | 146 kts | 49° |
| 2026-04-21 03:51 | 34.94566 | -116.38224 | 11429 ft | 146 kts | 49° |
| 2026-04-21 03:52 | 34.95292 | -116.37358 | 11424 ft | 146 kts | 49° |
| 2026-04-21 03:52 | 34.96030 | -116.36481 | 11417 ft | 146 kts | 49° |
| 2026-04-21 03:52 | 34.96754 | -116.35618 | 11415 ft | 145 kts | 49° |
| 2026-04-21 03:52 | 34.97476 | -116.34753 | 11416 ft | 145 kts | 49° |
| 2026-04-21 03:53 | 34.98204 | -116.33888 | 11418 ft | 145 kts | 50° |
| 2026-04-21 03:53 | 34.98927 | -116.33024 | 11415 ft | 145 kts | 50° |
| 2026-04-21 03:53 | 34.99648 | -116.32162 | 11416 ft | 145 kts | 50° |
| 2026-04-21 03:53 | 35.00374 | -116.31294 | 11416 ft | 145 kts | 49° |
| 2026-04-21 03:54 | 35.01089 | -116.30441 | 11416 ft | 146 kts | 50° |
| 2026-04-21 03:54 | 35.01814 | -116.29576 | 11412 ft | 143 kts | 50° |
| 2026-04-21 03:54 | 35.02523 | -116.28728 | 11415 ft | 141 kts | 50° |
| 2026-04-21 03:54 | 35.03215 | -116.27903 | 11423 ft | 139 kts | 50° |
| 2026-04-21 03:55 | 35.03903 | -116.27078 | 11431 ft | 138 kts | 50° |
| 2026-04-21 03:55 | 35.04590 | -116.26259 | 11430 ft | 137 kts | 50° |
| 2026-04-21 03:55 | 35.05273 | -116.25441 | 11429 ft | 137 kts | 50° |
| 2026-04-21 03:55 | 35.05957 | -116.24622 | 11430 ft | 136 kts | 50° |
| 2026-04-21 03:56 | 35.06638 | -116.23804 | 11433 ft | 136 kts | 51° |
| 2026-04-21 03:56 | 35.07313 | -116.22997 | 11435 ft | 136 kts | 51° |
| 2026-04-21 03:56 | 35.07994 | -116.22182 | 11433 ft | 136 kts | 50° |
| 2026-04-21 03:56 | 35.08674 | -116.21365 | 11431 ft | 136 kts | 51° |
| 2026-04-21 03:57 | 35.09350 | -116.20556 | 11433 ft | 136 kts | 50° |
| 2026-04-21 03:57 | 35.10026 | -116.19743 | 11431 ft | 136 kts | 50° |
| 2026-04-21 03:57 | 35.10709 | -116.18926 | 11427 ft | 136 kts | 50° |
| 2026-04-21 03:57 | 35.11385 | -116.18116 | 11427 ft | 136 kts | 50° |
| 2026-04-21 03:58 | 35.12059 | -116.17307 | 11431 ft | 135 kts | 50° |
| 2026-04-21 03:58 | 35.12734 | -116.16499 | 11428 ft | 135 kts | 50° |
| 2026-04-21 03:58 | 35.13405 | -116.15691 | 11424 ft | 135 kts | 50° |
| 2026-04-21 03:58 | 35.14080 | -116.14882 | 11424 ft | 135 kts | 50° |
| 2026-04-21 03:59 | 35.14755 | -116.14071 | 11427 ft | 135 kts | 50° |
| 2026-04-21 03:59 | 35.15428 | -116.13261 | 11426 ft | 135 kts | 50° |
| 2026-04-21 03:59 | 35.16092 | -116.12466 | 11424 ft | 135 kts | 50° |
| 2026-04-21 04:00 | 35.17435 | -116.10850 | 11424 ft | 135 kts | 50° |
| 2026-04-21 04:00 | 35.18110 | -116.10041 | 11422 ft | 135 kts | 51° |
| 2026-04-21 04:00 | 35.18784 | -116.09230 | 11419 ft | 135 kts | 51° |
| 2026-04-21 04:00 | 35.19451 | -116.08426 | 11418 ft | 135 kts | 51° |
| 2026-04-21 04:01 | 35.20130 | -116.07611 | 11415 ft | 136 kts | 51° |
| 2026-04-21 04:01 | 35.20808 | -116.06795 | 11407 ft | 136 kts | 50° |
| 2026-04-21 04:01 | 35.21482 | -116.05983 | 11405 ft | 135 kts | 50° |
| 2026-04-21 04:01 | 35.22150 | -116.05177 | 11397 ft | 135 kts | 50° |
| 2026-04-21 04:02 | 35.22829 | -116.04363 | 11394 ft | 135 kts | 50° |
| 2026-04-21 04:02 | 35.23493 | -116.03564 | 11396 ft | 135 kts | 51° |
| 2026-04-21 04:02 | 35.24163 | -116.02756 | 11390 ft | 135 kts | 51° |
| 2026-04-21 04:02 | 35.24834 | -116.01945 | 11387 ft | 135 kts | 51° |
| 2026-04-21 04:03 | 35.25502 | -116.01140 | 11389 ft | 135 kts | 51° |
| 2026-04-21 04:03 | 35.26175 | -116.00327 | 11390 ft | 135 kts | 51° |
| 2026-04-21 04:03 | 35.26847 | -115.99515 | 11394 ft | 135 kts | 51° |
| 2026-04-21 04:03 | 35.27517 | -115.98710 | 11398 ft | 135 kts | 50° |
| 2026-04-21 04:04 | 35.28197 | -115.97887 | 11404 ft | 135 kts | 50° |
| 2026-04-21 04:04 | 35.28871 | -115.97074 | 11407 ft | 135 kts | 50° |
| 2026-04-21 04:04 | 35.29538 | -115.96268 | 11414 ft | 135 kts | 50° |
| 2026-04-21 04:04 | 35.30210 | -115.95458 | 11417 ft | 135 kts | 50° |
| 2026-04-21 04:05 | 35.30883 | -115.94645 | 11423 ft | 135 kts | 51° |
| 2026-04-21 04:05 | 35.31561 | -115.93827 | 11430 ft | 135 kts | 50° |
| 2026-04-21 04:05 | 35.32227 | -115.93021 | 11431 ft | 135 kts | 51° |
| 2026-04-21 04:05 | 35.32907 | -115.92199 | 11440 ft | 135 kts | 51° |
| 2026-04-21 04:06 | 35.33572 | -115.91398 | 11443 ft | 135 kts | 51° |
| 2026-04-21 04:06 | 35.34246 | -115.90581 | 11449 ft | 135 kts | 50° |
| 2026-04-21 04:06 | 35.34922 | -115.89762 | 11454 ft | 135 kts | 50° |
| 2026-04-21 04:06 | 35.35590 | -115.88957 | 11457 ft | 136 kts | 51° |
| 2026-04-21 04:07 | 35.36272 | -115.88128 | 11458 ft | 136 kts | 50° |
| 2026-04-21 04:07 | 35.36941 | -115.87317 | 11441 ft | 138 kts | 51° |
| 2026-04-21 04:07 | 35.37649 | -115.86459 | 11359 ft | 146 kts | 51° |
| 2026-04-21 04:07 | 35.38388 | -115.85559 | 11276 ft | 151 kts | 50° |
| 2026-04-21 04:08 | 35.39135 | -115.84654 | 11190 ft | 154 kts | 50° |
| 2026-04-21 04:08 | 35.39910 | -115.83715 | 11096 ft | 156 kts | 50° |
| 2026-04-21 04:08 | 35.40683 | -115.82777 | 11004 ft | 157 kts | 50° |
| 2026-04-21 04:08 | 35.41468 | -115.81825 | 10914 ft | 157 kts | 50° |
| 2026-04-21 04:09 | 35.42247 | -115.80885 | 10820 ft | 158 kts | 50° |
| 2026-04-21 04:09 | 35.43036 | -115.79929 | 10726 ft | 158 kts | 50° |
| 2026-04-21 04:09 | 35.43808 | -115.78991 | 10633 ft | 158 kts | 50° |
| 2026-04-21 04:09 | 35.44593 | -115.78036 | 10540 ft | 158 kts | 50° |
| 2026-04-21 04:10 | 35.45383 | -115.77078 | 10444 ft | 159 kts | 50° |
| 2026-04-21 04:10 | 35.46174 | -115.76118 | 10350 ft | 159 kts | 50° |
| 2026-04-21 04:10 | 35.46954 | -115.75169 | 10254 ft | 159 kts | 50° |
| 2026-04-21 04:10 | 35.47742 | -115.74211 | 10155 ft | 159 kts | 50° |
| 2026-04-21 04:11 | 35.48533 | -115.73251 | 10057 ft | 159 kts | 50° |
| 2026-04-21 04:11 | 35.49319 | -115.72295 | 9963 ft | 159 kts | 50° |
| 2026-04-21 04:11 | 35.50118 | -115.71325 | 9866 ft | 160 kts | 50° |
| 2026-04-21 04:11 | 35.50895 | -115.70378 | 9777 ft | 159 kts | 50° |
| 2026-04-21 04:12 | 35.51693 | -115.69410 | 9683 ft | 159 kts | 50° |
| 2026-04-21 04:12 | 35.52472 | -115.68459 | 9588 ft | 159 kts | 50° |
| 2026-04-21 04:12 | 35.53256 | -115.67503 | 9514 ft | 158 kts | 50° |
| 2026-04-21 04:12 | 35.54027 | -115.66565 | 9502 ft | 153 kts | 50° |
| 2026-04-21 04:13 | 35.54780 | -115.65650 | 9503 ft | 150 kts | 50° |
| 2026-04-21 04:13 | 35.55511 | -115.64758 | 9505 ft | 148 kts | 50° |
| 2026-04-21 04:13 | 35.56250 | -115.63856 | 9510 ft | 147 kts | 50° |
| 2026-04-21 04:13 | 35.56974 | -115.62974 | 9512 ft | 147 kts | 50° |
| 2026-04-21 04:14 | 35.57705 | -115.62083 | 9515 ft | 147 kts | 50° |
| 2026-04-21 04:14 | 35.58428 | -115.61197 | 9517 ft | 146 kts | 50° |
| 2026-04-21 04:14 | 35.59155 | -115.60312 | 9498 ft | 147 kts | 50° |
| 2026-04-21 04:14 | 35.59890 | -115.59414 | 9377 ft | 149 kts | 50° |
| 2026-04-21 04:15 | 35.60629 | -115.58511 | 9264 ft | 150 kts | 50° |
| 2026-04-21 04:15 | 35.61381 | -115.57591 | 9146 ft | 151 kts | 50° |
| 2026-04-21 04:15 | 35.62123 | -115.56683 | 9033 ft | 151 kts | 50° |
| 2026-04-21 04:15 | 35.62879 | -115.55763 | 8919 ft | 152 kts | 50° |
| 2026-04-21 04:16 | 35.63628 | -115.54848 | 8804 ft | 152 kts | 50° |
| 2026-04-21 04:16 | 35.64372 | -115.53941 | 8689 ft | 152 kts | 50° |
| 2026-04-21 04:16 | 35.65129 | -115.53016 | 8574 ft | 152 kts | 50° |
| 2026-04-21 04:16 | 35.65884 | -115.52094 | 8459 ft | 152 kts | 50° |
| 2026-04-21 04:17 | 35.66640 | -115.51166 | 8325 ft | 154 kts | 49° |
| 2026-04-21 04:17 | 35.67405 | -115.50229 | 8166 ft | 156 kts | 49° |
| 2026-04-21 04:17 | 35.68174 | -115.49287 | 8002 ft | 157 kts | 49° |
| 2026-04-21 04:17 | 35.68954 | -115.48334 | 7836 ft | 158 kts | 49° |
| 2026-04-21 04:18 | 35.69734 | -115.47377 | 7670 ft | 158 kts | 49° |
| 2026-04-21 04:18 | 35.70509 | -115.46431 | 7551 ft | 155 kts | 49° |
| 2026-04-21 04:18 | 35.71256 | -115.45517 | 7531 ft | 147 kts | 49° |
| 2026-04-21 04:18 | 35.71970 | -115.44645 | 7528 ft | 142 kts | 50° |
| 2026-04-21 04:19 | 35.72665 | -115.43789 | 7533 ft | 138 kts | 50° |
| 2026-04-21 04:19 | 35.73344 | -115.42956 | 7540 ft | 136 kts | 50° |
| 2026-04-21 04:19 | 35.74014 | -115.42133 | 7534 ft | 136 kts | 50° |
| 2026-04-21 04:19 | 35.74711 | -115.41272 | 7375 ft | 147 kts | 50° |
| 2026-04-21 04:20 | 35.75447 | -115.40364 | 7221 ft | 152 kts | 50° |
| 2026-04-21 04:20 | 35.76209 | -115.39429 | 7057 ft | 155 kts | 49° |
| 2026-04-21 04:20 | 35.76977 | -115.38488 | 6893 ft | 157 kts | 49° |
| 2026-04-21 04:20 | 35.77764 | -115.37524 | 6723 ft | 158 kts | 49° |
| 2026-04-21 04:21 | 35.78547 | -115.36558 | 6556 ft | 158 kts | 49° |
| 2026-04-21 04:21 | 35.79327 | -115.35599 | 6387 ft | 159 kts | 49° |
| 2026-04-21 04:21 | 35.80110 | -115.34635 | 6217 ft | 159 kts | 50° |
| 2026-04-21 04:21 | 35.80889 | -115.33677 | 6045 ft | 159 kts | 50° |
| 2026-04-21 04:22 | 35.81667 | -115.32719 | 5878 ft | 158 kts | 50° |
| 2026-04-21 04:22 | 35.82453 | -115.31752 | 5713 ft | 158 kts | 49° |
| 2026-04-21 04:22 | 35.83234 | -115.30791 | 5546 ft | 158 kts | 49° |
| 2026-04-21 04:22 | 35.84015 | -115.29828 | 5378 ft | 158 kts | 49° |
| 2026-04-21 04:23 | 35.84798 | -115.28862 | 5205 ft | 158 kts | 49° |
| 2026-04-21 04:23 | 35.85574 | -115.27908 | 5044 ft | 158 kts | 49° |
| 2026-04-21 04:23 | 35.86339 | -115.26967 | 4992 ft | 151 kts | 49° |
| 2026-04-21 04:23 | 35.87074 | -115.26061 | 4981 ft | 145 kts | 49° |
| 2026-04-21 04:24 | 35.87783 | -115.25186 | 4946 ft | 144 kts | 49° |
| 2026-04-21 04:24 | 35.88493 | -115.24307 | 4878 ft | 145 kts | 49° |
| 2026-04-21 04:24 | 35.89207 | -115.23423 | 4761 ft | 143 kts | 49° |
| 2026-04-21 04:24 | 35.89905 | -115.22566 | 4642 ft | 141 kts | 50° |
| 2026-04-21 04:25 | 35.90602 | -115.21705 | 4523 ft | 140 kts | 50° |
| 2026-04-21 04:25 | 35.91299 | -115.20845 | 4391 ft | 140 kts | 50° |
| 2026-04-21 04:25 | 35.91974 | -115.20013 | 4278 ft | 139 kts | 50° |
| 2026-04-21 04:25 | 35.92661 | -115.19161 | 4156 ft | 139 kts | 49° |
| 2026-04-21 04:26 | 35.93344 | -115.18317 | 4031 ft | 139 kts | 50° |
| 2026-04-21 04:26 | 35.94025 | -115.17473 | 3902 ft | 139 kts | 50° |
| 2026-04-21 04:26 | 35.94720 | -115.16614 | 3779 ft | 139 kts | 50° |
| 2026-04-21 04:26 | 35.95405 | -115.15769 | 3653 ft | 140 kts | 49° |
| 2026-04-21 04:27 | 35.96285 | -115.15263 | 3527 ft | 144 kts | 6° |
| 2026-04-21 04:27 | 35.97228 | -115.15166 | 3448 ft | 121 kts | 6° |
| 2026-04-21 04:27 | 35.98053 | -115.15079 | 3244 ft | 115 kts | 2° |
| 2026-04-21 04:27 | 35.98794 | -115.15052 | 3129 ft | 107 kts | 0° |
| 2026-04-21 04:28 | 35.99514 | -115.14928 | 3044 ft | 98 kts | 33° |
| 2026-04-21 04:28 | 35.99731 | -115.14299 | 3020 ft | 76 kts | 116° |
| 2026-04-21 04:28 | 35.99484 | -115.13713 | 2922 ft | 72 kts | 138° |
| 2026-04-21 04:28 | 35.99067 | -115.13509 | 2793 ft | 66 kts | 180° |
| 2026-04-21 04:29 | 35.98604 | -115.13523 | 2651 ft | 65 kts | 179° |
| 2026-04-21 04:29 | 35.98147 | -115.13535 | 2477 ft | 65 kts | 180° |
| 2026-04-21 04:29 | 35.97770 | -115.13542 | 2414 ft | 39 kts | 175° |
| 2026-04-21 04:29 | 35.97541 | -115.13540 | 2424 ft | 19 kts | 181° |
| 2026-04-21 04:30 | 35.97449 | -115.13552 | 2427 ft | 8 kts | 223° |
| 2026-04-21 04:30 | 35.97442 | -115.13568 | 2427 ft | 6 kts | 255° |
| 2026-04-21 04:30 | 35.97409 | -115.13642 | 2427 ft | 14 kts | 182° |
| 2026-04-21 04:30 | 35.97311 | -115.13644 | 2431 ft | 13 kts | 180° |
| 2026-04-21 04:31 | 35.97223 | -115.13646 | 2436 ft | 11 kts | 181° |
| 2026-04-21 04:31 | 35.97144 | -115.13646 | 2440 ft | 11 kts | 182° |
| 2026-04-21 04:31 | 35.97106 | -115.13692 | 2440 ft | 14 kts | 329° |
| 2026-04-21 04:31 | 35.97189 | -115.13726 | 2436 ft | 8 kts | 271° |
| 2026-04-21 04:32 | 35.97191 | -115.13739 | 2435 ft | 0 kts | 322° |
| 2026-04-21 04:32 | 35.97190 | -115.13729 | 2436 ft | 2 kts | 153° |
| 2026-04-21 04:32 | 35.97178 | -115.13730 | 2436 ft | 0 kts | 200° |
| 2026-04-21 04:33 | 35.97177 | -115.13731 | 2436 ft | 0 kts | 189° |